Date,TemperatureHighF,TemperatureAvgF,TemperatureLowF,DewpointHighF,DewpointAvgF,DewpointLowF,HumidityHigh,HumidityAvg,HumidityLow,PressureMaxIn,PressureMinIn,WindSpeedMaxMPH,WindSpeedAvgMPH,GustSpeedMaxMPH,PrecipitationSumIn
2013-5-1,77,69,63,71,68,63,100,96,81,0.00,40.00,7,3,0,0.00
2013-5-2,74,66,63,69,65,63,100,96,82,0.00,40.00,4,2,0,0.00
2013-5-3,76,65,48,67,62,48,100,91,71,0.00,40.00,4,2,0,0.00
2013-5-4,72,57,41,50,44,37,99,67,29,0.00,40.00,2,1,0,0.00
2013-5-5,69,61,48,56,47,41,97,62,42,0.00,40.00,9,4,0,0.00
2013-5-6,70,60,45,56,49,44,97,70,43,0.00,40.00,13,5,0,0.00
2013-5-7,75,63,50,62,57,50,99,81,52,0.00,40.00,9,3,0,0.00
2013-5-8,81,69,54,63,59,54,99,73,45,0.00,40.00,9,3,0,0.00
2013-5-9,80,73,59,66,63,58,96,74,55,0.00,40.00,6,3,0,0.00
2013-5-10,73,67,63,69,62,-100,98,90,70,0.00,40.00,9,4,0,0.00
2013-5-11,76,66,61,67,60,-100,100,92,72,0.00,40.00,5,2,0,0.00
2013-5-12,80,70,60,65,60,56,99,75,49,0.00,40.00,1,0,0,0.00
2013-5-13,79,65,50,57,50,40,97,64,27,0.00,40.00,7,2,0,0.00
2013-5-14,81,69,51,61,55,51,98,67,36,0.00,40.00,7,2,0,0.00
2013-5-15,83,70,55,64,56,48,98,67,32,0.00,40.00,6,2,0,0.00
2013-5-16,80,62,65,70,41,-100,97,86,67,0.00,40.00,7,3,0,0.00
2013-5-17,83,74,68,72,58,-100,97,85,66,0.00,40.00,8,4,0,0.00
2013-5-18,85,78,74,73,72,69,96,82,60,0.00,40.00,7,5,0,0.00
2013-5-19,82,76,72,74,73,71,98,88,76,0.00,40.00,6,3,0,0.00
2013-5-20,86,78,71,74,72,70,98,83,58,0.00,40.00,7,4,0,0.00
2013-5-21,83,77,67,74,71,66,97,82,65,0.00,40.00,6,4,0,0.00
2013-5-22,81,72,66,71,68,65,98,88,65,0.00,40.00,5,1,0,0.00
2013-5-23,88,77,64,73,69,63,99,80,57,0.00,40.00,7,2,0,0.00
2013-5-24,90,78,67,73,67,62,99,72,48,0.00,40.00,1,0,0,0.00
2013-5-25,85,72,59,63,57,52,91,63,33,0.00,40.00,5,2,0,0.00
2013-5-26,84,74,59,68,62,57,98,71,42,0.00,40.00,6,2,0,0.00
2013-5-27,83,77,68,71,66,60,94,70,47,0.00,40.00,8,4,0,0.00
2013-5-28,84,74,59,71,66,59,98,78,56,0.00,40.00,6,3,0,0.00
2013-5-29,86,78,73,73,72,71,92,81,65,0.00,40.00,7,4,0,0.00
2013-5-30,83,78,75,73,72,71,88,81,72,0.00,40.00,7,5,0,0.00
2013-5-31,84,79,76,75,74,72,92,84,75,0.00,40.00,7,4,0,0.00